createdAt,value
2023-06-22T00:07:05.497Z,9.70
2023-06-22T00:17:08.479Z,9.75
2023-06-22T00:27:12.828Z,14.15
2023-06-22T00:37:15.846Z,15.50
2023-06-22T00:47:20.940Z,10.43
2023-06-22T00:57:27.012Z,10.48
2023-06-22T01:07:40.433Z,13.93
2023-06-22T01:17:46.463Z,13.23
2023-06-22T01:28:02.409Z,15.15
2023-06-22T01:38:07.408Z,15.38
2023-06-22T01:48:10.613Z,16.38
2023-06-22T01:58:15.257Z,15.60
2023-06-22T02:08:22.079Z,18.27
2023-06-22T02:18:26.482Z,16.35
2023-06-22T02:38:35.852Z,22.52
2023-06-22T02:48:38.953Z,17.95
2023-06-22T02:58:44.202Z,22.92
2023-06-22T03:08:48.529Z,25.65
2023-06-22T03:18:54.491Z,23.25
2023-06-22T03:28:57.535Z,26.73
2023-06-22T03:39:02.044Z,23.27
2023-06-22T03:49:05.882Z,25.08
2023-06-22T03:59:10.982Z,28.95
2023-06-22T04:09:14.051Z,26.80
2023-06-22T04:19:18.841Z,25.52
2023-06-22T04:29:21.970Z,25.10
2023-06-22T04:39:28.141Z,27.80
2023-06-22T04:49:34.088Z,24.30
2023-06-22T04:59:40.237Z,24.50
2023-06-22T05:09:43.408Z,22.10
2023-06-22T05:19:49.531Z,23.00
2023-06-22T05:29:56.147Z,26.58
2023-06-22T05:40:01.309Z,27.77
2023-06-22T05:50:08.205Z,32.47
2023-06-22T06:00:16.325Z,27.80
2023-06-22T06:10:19.738Z,31.60
2023-06-22T06:20:31.882Z,29.43
2023-06-22T06:30:36.194Z,33.72
2023-06-22T06:40:48.732Z,30.08
2023-06-22T06:50:52.580Z,29.42
2023-06-22T07:11:11.164Z,27.27
2023-06-22T07:31:26.731Z,28.67
2023-06-22T07:41:49.642Z,32.95
2023-06-22T07:51:56.266Z,36.67
2023-06-22T08:02:01.194Z,37.22
2023-06-22T08:12:07.518Z,42.72
2023-06-22T08:22:19.996Z,35.60
2023-06-22T08:32:23.776Z,29.08
2023-06-22T08:42:35.277Z,29.67
2023-06-22T08:52:43.221Z,27.60
2023-06-22T09:02:49.571Z,25.38
2023-06-22T09:12:53.837Z,23.65
2023-06-22T09:23:01.221Z,24.25
2023-06-22T09:33:05.187Z,20.80
2023-06-22T09:43:14.263Z,19.02
2023-06-22T09:53:27.239Z,17.80
2023-06-22T10:03:45.396Z,17.27
2023-06-22T10:13:49.004Z,18.88
2023-06-22T10:23:56.669Z,19.80
2023-06-22T10:34:00.492Z,19.48
2023-06-22T10:44:10.086Z,19.35
2023-06-22T10:54:41.819Z,23.63
2023-06-22T11:04:47.284Z,29.08
2023-06-22T11:14:51.361Z,33.30
2023-06-22T11:24:55.811Z,38.55
2023-06-22T11:34:58.961Z,43.55
2023-06-22T11:45:05.850Z,54.30
2023-06-22T11:55:10.114Z,54.67
2023-06-22T12:05:15.086Z,79.85
2023-06-22T12:15:19.298Z,67.28
2023-06-22T12:25:28.106Z,78.32
2023-06-22T12:35:32.968Z,60.53
2023-06-22T12:45:51.281Z,59.22
2023-06-22T12:55:54.821Z,53.83
2023-06-22T13:06:00.326Z,66.03
2023-06-22T13:16:07.253Z,58.53
2023-06-22T13:26:30.297Z,47.05
2023-06-22T13:36:33.993Z,52.05
2023-06-22T13:46:38.756Z,51.53
2023-06-22T13:56:42.374Z,37.70
2023-06-22T14:06:50.579Z,33.33
2023-06-22T14:16:56.303Z,39.08
2023-06-22T14:27:08.967Z,36.92
2023-06-22T14:37:18.778Z,43.40
2023-06-22T14:47:23.903Z,53.47
2023-06-22T14:57:29.042Z,57.75
2023-06-22T15:07:40.283Z,52.75
2023-06-22T15:17:45.227Z,47.25
2023-06-22T15:27:59.449Z,54.00
2023-06-22T15:38:06.075Z,61.67
2023-06-22T15:48:11.670Z,59.35
2023-06-22T15:58:20.070Z,77.22
2023-06-22T16:08:32.191Z,104.43
2023-06-22T16:18:38.569Z,101.78
2023-06-22T16:28:48.501Z,110.40
2023-06-22T16:38:55.301Z,138.82
2023-06-22T16:49:02.942Z,139.75
2023-06-22T16:59:11.724Z,129.38
2023-06-22T17:09:19.992Z,131.93
2023-06-22T17:19:30.084Z,83.00
2023-06-22T17:29:35.791Z,68.95
2023-06-22T17:39:53.997Z,55.47
2023-06-22T17:50:07.667Z,57.40
2023-06-22T18:00:12.737Z,50.10
2023-06-22T18:10:17.425Z,53.80
2023-06-22T18:20:21.536Z,52.90
2023-06-22T18:30:27.010Z,54.58
2023-06-22T18:40:31.012Z,56.13
2023-06-22T18:50:45.453Z,63.88
2023-06-22T19:00:53.603Z,52.83
2023-06-22T19:11:14.026Z,54.70
2023-06-22T19:21:26.076Z,49.08
2023-06-22T19:31:30.501Z,67.32
2023-06-22T19:41:34.220Z,65.53
2023-06-22T19:51:38.987Z,50.10
2023-06-22T20:01:42.776Z,58.08
2023-06-22T20:11:47.373Z,54.30
2023-06-22T20:21:50.442Z,61.75
2023-06-22T20:32:06.270Z,59.00
2023-06-22T20:42:12.119Z,59.42
2023-06-22T20:52:18.685Z,65.97
2023-06-22T21:02:21.871Z,68.63
2023-06-22T21:12:26.249Z,52.70
2023-06-22T21:32:35.705Z,45.55
2023-06-22T21:42:38.717Z,47.65
2023-06-22T21:52:43.107Z,40.55
2023-06-22T22:12:51.372Z,24.45
2023-06-22T22:22:54.514Z,25.65
2023-06-22T22:32:58.995Z,26.55
2023-06-22T22:43:02.767Z,26.33
2023-06-22T22:53:09.279Z,18.53
2023-06-22T23:03:12.448Z,22.17
2023-06-22T23:13:16.923Z,25.25
2023-06-22T23:23:19.972Z,20.13
2023-06-22T23:33:26.196Z,23.05
2023-06-22T23:43:29.302Z,25.90
2023-06-22T23:53:33.746Z,26.20
